| time (UTC) | temp F | wind direction | speed MPH | gust MPH | rain 1hr in | rain 24hr in | rain mn in | humidity % | barometer mb |
| 20260507140016 | 49 | 242 | 6.0 | 10.0 | 0.00 | 0.62 | 0.01 | 70 | 1009.5 |
| 20260507134514 | 49 | 217 | 5.0 | 12.0 | 0.00 | 0.62 | 0.01 | 71 | 1009.3 |
| 20260507133009 | 48 | 207 | 4.0 | 9.0 | 0.00 | 0.62 | 0.01 | 76 | 1009.5 |
| 20260507131520 | 46 | 209 | 1.0 | 7.0 | 0.00 | 0.62 | 0.01 | 76 | 1009.6 |
| 20260507130007 | 46 | 206 | 3.0 | 7.0 | 0.00 | 0.62 | 0.01 | 78 | 1009.8 |
| 20260507124506 | 47 | 245 | 2.0 | 8.0 | 0.00 | 0.62 | 0.01 | 76 | 1009.8 |
| 20260507123004 | 47 | 205 | 1.0 | 9.0 | 0.00 | 0.62 | 0.01 | 77 | 1009.4 |
| 20260507121604 | 46 | 14 | 4.0 | 11.0 | 0.00 | 0.62 | 0.01 | 79 | 1009.1 |
| 20260507120100 | 44 | 22 | 2.0 | 8.0 | 0.00 | 0.62 | 0.01 | 82 | 1009.2 |
| 20260507114555 | 43 | 24 | 2.0 | 6.0 | 0.00 | 0.62 | 0.01 | 84 | 1009.4 |
| 20260507113052 | 42 | 355 | 1.0 | 5.0 | 0.00 | 0.62 | 0.01 | 87 | 1009.2 |
| 20260507111552 | 40 | 299 | 1.0 | 5.0 | 0.00 | 0.62 | 0.01 | 87 | 1009.1 |
| 20260507110051 | 40 | 355 | 0.0 | 2.0 | 0.00 | 0.62 | 0.01 | 87 | 1009.0 |
| 20260507104554 | 39 | 355 | 0.0 | 2.0 | 0.00 | 0.62 | 0.01 | 87 | 1009.2 |
| 20260507103049 | 39 | 355 | 0.0 | 3.0 | 0.00 | 0.62 | 0.01 | 86 | 1008.9 |
| 20260507101558 | 39 | 355 | 0.0 | 1.0 | 0.00 | 0.62 | 0.01 | 86 | 1008.8 |
| 20260507100055 | 40 | 355 | 0.0 | 2.0 | 0.00 | 0.62 | 0.01 | 86 | 1008.9 |
| 20260507094547 | 40 | 14 | 1.0 | 5.0 | 0.00 | 0.62 | 0.01 | 86 | 1008.7 |
| 20260507093045 | 40 | 44 | 3.0 | 8.0 | 0.00 | 0.62 | 0.01 | 87 | 1009.0 |
| 20260507091541 | 40 | 348 | 1.0 | 4.0 | 0.00 | 0.62 | 0.01 | 87 | 1008.9 |
| 20260507090041 | 40 | 262 | 1.0 | 4.0 | 0.00 | 0.62 | 0.01 | 86 | 1008.8 |
| 20260507084545 | 40 | 78 | 2.0 | 5.0 | 0.00 | 0.62 | 0.01 | 87 | 1008.8 |
| 20260507083048 | 41 | 75 | 1.0 | 3.0 | 0.00 | 0.62 | 0.01 | 87 | 1008.5 |
| 20260507081537 | 41 | 294 | 0.0 | 4.0 | 0.00 | 0.62 | 0.01 | 87 | 1008.3 |
| 20260507080031 | 41 | 178 | 0.0 | 5.0 | 0.00 | 0.62 | 0.01 | 87 | 1008.6 |
| 20260507074530 | 41 | 80 | 2.0 | 8.0 | 0.00 | 0.62 | 0.01 | 87 | 1008.6 |
| 20260507073030 | 42 | 169 | 3.0 | 6.0 | 0.00 | 0.62 | 0.01 | 87 | 1008.0 |
| 20260507071528 | 42 | 332 | 2.0 | 5.0 | 0.00 | 0.62 | 0.01 | 88 | 1007.6 |
| 20260507070032 | 42 | 269 | 1.0 | 6.0 | 0.00 | 0.62 | 0.01 | 88 | 1007.6 |
| 20260507064533 | 42 | 290 | 1.0 | 5.0 | 0.00 | 0.62 | 0.01 | 88 | 1008.2 |
| 20260507063028 | 42 | 355 | 1.0 | 6.0 | 0.00 | 0.62 | 0.01 | 88 | 1008.0 |
| 20260507061518 | 43 | 164 | 2.0 | 7.0 | 0.00 | 0.62 | 0.01 | 88 | 1007.7 |
| 20260507060020 | 43 | 187 | 1.0 | 6.0 | 0.00 | 0.62 | 0.01 | 88 | 1008.0 |
| 20260507054516 | 43 | 23 | 2.0 | 8.0 | 0.00 | 0.62 | 0.01 | 89 | 1008.1 |
| 20260507053013 | 43 | 332 | 1.0 | 8.0 | 0.00 | 0.62 | 0.01 | 89 | 1007.9 |
| 20260507051511 | 43 | 325 | 1.0 | 5.0 | 0.00 | 0.62 | 0.01 | 88 | 1008.3 |
| 20260507050009 | 43 | 114 | 2.0 | 7.0 | 0.01 | 0.62 | 0.01 | 89 | 1007.8 |
| 20260507044506 | 43 | 220 | 2.0 | 6.0 | 0.01 | 0.62 | 0.01 | 89 | 1007.8 |
| 20260507043005 | 43 | 284 | 2.0 | 4.0 | 0.01 | 0.62 | 0.01 | 89 | 1007.6 |
| 20260507041513 | 44 | 275 | 3.0 | 7.0 | 0.01 | 0.62 | 0.01 | 89 | 1007.7 |
| 20260507040100 | 44 | 315 | 1.0 | 6.0 | 0.00 | 0.61 | 0.00 | 89 | 1007.6 |
| 20260507034559 | 44 | 339 | 3.0 | 8.0 | 0.00 | 0.61 | 0.61 | 89 | 1007.7 |
| 20260507033057 | 44 | 224 | 2.0 | 6.0 | 0.00 | 0.61 | 0.61 | 89 | 1007.7 |
| 20260507031556 | 44 | 285 | 2.0 | 10.0 | 0.00 | 0.61 | 0.61 | 89 | 1007.7 |
| 20260507030055 | 44 | 332 | 3.0 | 8.0 | 0.01 | 0.61 | 0.61 | 89 | 1007.8 |
| 20260507024606 | 45 | 310 | 4.0 | 9.0 | 0.01 | 0.61 | 0.61 | 89 | 1007.9 |
| 20260507023051 | 45 | 173 | 2.0 | 8.0 | 0.02 | 0.61 | 0.61 | 89 | 1007.8 |
| 20260507021549 | 45 | 202 | 3.0 | 10.0 | 0.03 | 0.61 | 0.61 | 89 | 1007.7 |
| 20260507020104 | 46 | 101 | 3.0 | 13.0 | 0.02 | 0.60 | 0.60 | 89 | 1007.5 |
| 20260507014553 | 47 | 251 | 4.0 | 11.0 | 0.02 | 0.60 | 0.60 | 89 | 1007.4 |
| 20260507013047 | 47 | 236 | 4.0 | 8.0 | 0.01 | 0.59 | 0.59 | 89 | 1007.3 |
| 20260507011540 | 48 | 196 | 3.0 | 9.0 | 0.01 | 0.57 | 0.57 | 89 | 1006.8 |
| 20260507010036 | 49 | 209 | 3.0 | 6.0 | 0.01 | 0.57 | 0.57 | 89 | 1006.6 |
| 20260507004539 | 50 | 200 | 3.0 | 6.0 | 0.01 | 0.57 | 0.57 | 89 | 1006.6 |
| 20260507003032 | 51 | 19 | 3.0 | 10.0 | 0.01 | 0.57 | 0.57 | 89 | 1006.1 |
| 20260507001528 | 51 | 267 | 2.0 | 5.0 | 0.01 | 0.56 | 0.56 | 89 | 1006.1 |
| 20260507000027 | 52 | 198 | 2.0 | 9.0 | 0.02 | 0.56 | 0.56 | 89 | 1005.9 |
| 20260506234533 | 54 | 166 | 2.0 | 7.0 | 0.02 | 0.56 | 0.56 | 90 | 1005.4 |
| 20260506233020 | 56 | 235 | 1.0 | 9.0 | 0.04 | 0.56 | 0.56 | 91 | 1005.2 |
| 20260506231531 | 57 | 277 | 4.0 | 9.0 | 0.15 | 0.56 | 0.56 | 92 | 1005.0 |
| 20260506230019 | 57 | 213 | 5.0 | 9.0 | 0.18 | 0.55 | 0.55 | 92 | 1004.9 |
| 20260506224519 | 57 | 188 | 4.0 | 8.0 | 0.19 | 0.56 | 0.55 | 92 | 1004.9 |
| 20260506223027 | 58 | 247 | 3.0 | 9.0 | 0.17 | 0.53 | 0.52 | 91 | 1005.0 |
| 20260506221516 | 58 | 240 | 4.0 | 7.0 | 0.06 | 0.41 | 0.40 | 91 | 1005.1 |
| 20260506220019 | 58 | 192 | 5.0 | 9.0 | 0.06 | 0.38 | 0.37 | 91 | 1005.1 |
| 20260506214515 | 58 | 225 | 5.0 | 14.0 | 0.07 | 0.43 | 0.36 | 91 | 1005.1 |
| 20260506213015 | 58 | 184 | 6.0 | 12.0 | 0.11 | 0.42 | 0.35 | 91 | 1004.9 |
| 20260506211516 | 58 | 171 | 4.0 | 10.0 | 0.14 | 0.41 | 0.34 | 91 | 1005.0 |
| 20260506210014 | 58 | 198 | 4.0 | 9.0 | 0.13 | 0.38 | 0.31 | 91 | 1005.0 |
| 20260506204512 | 58 | 208 | 4.0 | 11.0 | 0.12 | 0.36 | 0.28 | 91 | 1005.1 |
| 20260506203018 | 58 | 206 | 7.0 | 12.0 | 0.08 | 0.31 | 0.24 | 91 | 1005.2 |
| 20260506201515 | 58 | 196 | 6.0 | 12.0 | 0.05 | 0.27 | 0.20 | 91 | 1005.2 |
| 20260506200007 | 58 | 156 | 5.0 | 10.0 | 0.04 | 0.25 | 0.18 | 91 | 1005.5 |
| 20260506194506 | 58 | 198 | 6.0 | 10.0 | 0.04 | 0.24 | 0.17 | 90 | 1005.8 |
| 20260506193004 | 58 | 191 | 8.0 | 13.0 | 0.04 | 0.23 | 0.16 | 90 | 1005.9 |
| 20260506191504 | 58 | 223 | 6.0 | 13.0 | 0.04 | 0.22 | 0.15 | 90 | 1005.9 |
| 20260506190003 | 58 | 196 | 7.0 | 17.0 | 0.04 | 0.21 | 0.14 | 90 | 1006.0 |
| 20260506184501 | 58 | 203 | 7.0 | 12.0 | 0.06 | 0.20 | 0.13 | 90 | 1006.0 |
| 20260506183104 | 58 | 170 | 8.0 | 16.0 | 0.07 | 0.19 | 0.12 | 89 | 1006.3 |
| 20260506181558 | 58 | 163 | 7.0 | 18.0 | 0.08 | 0.18 | 0.11 | 89 | 1006.6 |
| 20260506180056 | 59 | 193 | 6.0 | 12.0 | 0.08 | 0.17 | 0.10 | 89 | 1006.8 |
| 20260506174552 | 59 | 208 | 3.0 | 8.0 | 0.07 | 0.15 | 0.08 | 88 | 1007.0 |
| 20260506173053 | 59 | 204 | 2.0 | 6.0 | 0.05 | 0.12 | 0.05 | 87 | 1007.2 |
| 20260506171552 | 59 | 217 | 3.0 | 7.0 | 0.03 | 0.10 | 0.03 | 86 | 1007.2 |
| 20260506170106 | 60 | 219 | 3.0 | 7.0 | 0.02 | 0.09 | 0.02 | 84 | 1007.3 |
| 20260506164546 | 60 | 231 | 1.0 | 3.0 | 0.01 | 0.08 | 0.01 | 82 | 1007.3 |
| 20260506163057 | 61 | 196 | 0.0 | 3.0 | 0.00 | 0.07 | 0.00 | 81 | 1007.3 |
| 20260506161544 | 60 | 186 | 0.0 | 2.0 | 0.00 | 0.07 | 0.00 | 81 | 1007.3 |
| 20260506160041 | 60 | 186 | 0.0 | 3.0 | 0.00 | 0.07 | 0.00 | 82 | 1007.7 |
| 20260506154536 | 60 | 186 | 1.0 | 5.0 | 0.00 | 0.07 | 0.00 | 80 | 1008.5 |
| 20260506153034 | 60 | 171 | 5.0 | 10.0 | 0.00 | 0.07 | 0.00 | 77 | 1008.8 |
| 20260506151533 | 60 | 202 | 1.0 | 5.0 | 0.00 | 0.07 | 0.00 | 77 | 1008.6 |
| 20260506150029 | 60 | 117 | 2.0 | 4.0 | 0.00 | 0.07 | 0.00 | 77 | 1008.5 |
| 20260506144531 | 59 | 175 | 0.0 | 3.0 | 0.00 | 0.07 | 0.00 | 77 | 1008.4 |
| 20260506143032 | 59 | 170 | 2.0 | 5.0 | 0.00 | 0.07 | 0.00 | 77 | 1008.6 |
| 20260506141526 | 59 | 181 | 3.0 | 6.0 | 0.00 | 0.07 | 0.00 | 77 | 1008.6 |